sensor_id;sensor_type;location;lat;lon;timestamp;P1;durP1;ratioP1;P2;durP2;ratioP2
36243;SDS011;22284;49.956;19.816;2022-08-19T00:02:40;16.37;;;10.78;;
36243;SDS011;22284;49.956;19.816;2022-08-19T00:08:44;15.95;;;10.70;;
36243;SDS011;22284;49.956;19.816;2022-08-19T00:11:45;17.95;;;11.28;;
36243;SDS011;22284;49.956;19.816;2022-08-19T00:14:47;15.13;;;10.47;;
36243;SDS011;22284;49.956;19.816;2022-08-19T00:17:48;19.35;;;11.93;;
36243;SDS011;22284;49.956;19.816;2022-08-19T00:20:49;20.02;;;11.63;;
36243;SDS011;22284;49.956;19.816;2022-08-19T00:23:51;19.40;;;11.55;;
36243;SDS011;22284;49.956;19.816;2022-08-19T00:26:54;17.98;;;11.30;;
36243;SDS011;22284;49.956;19.816;2022-08-19T00:29:57;21.48;;;12.50;;
36243;SDS011;22284;49.956;19.816;2022-08-19T00:32:59;18.55;;;11.33;;
36243;SDS011;22284;49.956;19.816;2022-08-19T00:36:01;15.58;;;10.40;;
36243;SDS011;22284;49.956;19.816;2022-08-19T00:39:05;16.37;;;10.65;;
36243;SDS011;22284;49.956;19.816;2022-08-19T00:42:07;18.23;;;11.40;;
36243;SDS011;22284;49.956;19.816;2022-08-19T00:45:10;17.45;;;11.63;;
36243;SDS011;22284;49.956;19.816;2022-08-19T00:48:15;17.90;;;11.12;;
36243;SDS011;22284;49.956;19.816;2022-08-19T00:51:18;19.57;;;11.85;;
36243;SDS011;22284;49.956;19.816;2022-08-19T00:54:19;18.62;;;11.75;;
36243;SDS011;22284;49.956;19.816;2022-08-19T01:00:27;16.65;;;11.08;;
36243;SDS011;22284;49.956;19.816;2022-08-19T01:03:30;17.12;;;11.15;;
36243;SDS011;22284;49.956;19.816;2022-08-19T01:06:31;16.35;;;11.63;;
36243;SDS011;22284;49.956;19.816;2022-08-19T01:09:33;17.20;;;10.98;;
36243;SDS011;22284;49.956;19.816;2022-08-19T01:12:34;17.37;;;11.25;;
36243;SDS011;22284;49.956;19.816;2022-08-19T01:15:38;19.07;;;12.15;;
36243;SDS011;22284;49.956;19.816;2022-08-19T01:18:45;19.82;;;12.68;;
36243;SDS011;22284;49.956;19.816;2022-08-19T01:21:52;18.62;;;11.88;;
36243;SDS011;22284;49.956;19.816;2022-08-19T01:25:05;19.95;;;11.83;;
36243;SDS011;22284;49.956;19.816;2022-08-19T01:28:07;17.27;;;11.60;;
36243;SDS011;22284;49.956;19.816;2022-08-19T01:31:16;17.42;;;12.05;;
36243;SDS011;22284;49.956;19.816;2022-08-19T01:34:21;19.80;;;12.45;;
36243;SDS011;22284;49.956;19.816;2022-08-19T01:37:22;20.52;;;13.20;;
36243;SDS011;22284;49.956;19.816;2022-08-19T01:40:25;17.57;;;11.60;;
36243;SDS011;22284;49.956;19.816;2022-08-19T01:43:32;17.42;;;10.75;;
36243;SDS011;22284;49.956;19.816;2022-08-19T01:46:34;17.73;;;10.75;;
36243;SDS011;22284;49.956;19.816;2022-08-19T01:49:35;19.93;;;12.00;;
36243;SDS011;22284;49.956;19.816;2022-08-19T01:52:38;18.15;;;12.07;;
36243;SDS011;22284;49.956;19.816;2022-08-19T01:55:42;17.73;;;11.68;;
36243;SDS011;22284;49.956;19.816;2022-08-19T01:58:45;19.55;;;11.63;;
36243;SDS011;22284;49.956;19.816;2022-08-19T02:01:53;18.42;;;12.18;;
36243;SDS011;22284;49.956;19.816;2022-08-19T02:04:54;19.32;;;12.10;;
36243;SDS011;22284;49.956;19.816;2022-08-19T02:07:56;19.77;;;12.05;;
36243;SDS011;22284;49.956;19.816;2022-08-19T02:10:57;17.37;;;11.80;;
36243;SDS011;22284;49.956;19.816;2022-08-19T02:13:59;20.05;;;13.13;;
36243;SDS011;22284;49.956;19.816;2022-08-19T02:17:03;18.92;;;12.85;;
36243;SDS011;22284;49.956;19.816;2022-08-19T02:20:05;21.48;;;12.43;;
36243;SDS011;22284;49.956;19.816;2022-08-19T02:23:07;20.20;;;11.75;;
36243;SDS011;22284;49.956;19.816;2022-08-19T02:26:10;18.42;;;11.97;;
36243;SDS011;22284;49.956;19.816;2022-08-19T02:29:12;19.40;;;11.38;;
36243;SDS011;22284;49.956;19.816;2022-08-19T02:32:13;17.42;;;10.75;;
36243;SDS011;22284;49.956;19.816;2022-08-19T02:35:14;14.87;;;10.20;;
36243;SDS011;22284;49.956;19.816;2022-08-19T02:38:15;16.65;;;10.78;;
36243;SDS011;22284;49.956;19.816;2022-08-19T02:41:27;16.80;;;11.70;;
36243;SDS011;22284;49.956;19.816;2022-08-19T02:44:31;17.27;;;11.25;;
36243;SDS011;22284;49.956;19.816;2022-08-19T02:47:32;17.73;;;11.08;;
36243;SDS011;22284;49.956;19.816;2022-08-19T02:50:37;19.23;;;12.40;;
36243;SDS011;22284;49.956;19.816;2022-08-19T02:53:40;19.05;;;11.33;;
36243;SDS011;22284;49.956;19.816;2022-08-19T02:56:42;20.72;;;11.30;;
36243;SDS011;22284;49.956;19.816;2022-08-19T02:59:44;17.15;;;11.38;;
36243;SDS011;22284;49.956;19.816;2022-08-19T03:02:45;17.82;;;11.90;;
36243;SDS011;22284;49.956;19.816;2022-08-19T03:05:47;17.67;;;11.33;;
36243;SDS011;22284;49.956;19.816;2022-08-19T03:08:48;17.20;;;11.10;;
36243;SDS011;22284;49.956;19.816;2022-08-19T03:11:50;18.27;;;10.85;;
36243;SDS011;22284;49.956;19.816;2022-08-19T03:14:51;16.52;;;10.98;;
36243;SDS011;22284;49.956;19.816;2022-08-19T03:17:53;18.52;;;11.95;;
36243;SDS011;22284;49.956;19.816;2022-08-19T03:20:54;16.70;;;11.13;;
36243;SDS011;22284;49.956;19.816;2022-08-19T03:23:57;19.02;;;12.23;;
36243;SDS011;22284;49.956;19.816;2022-08-19T03:27:01;17.15;;;11.10;;
36243;SDS011;22284;49.956;19.816;2022-08-19T03:30:04;17.15;;;11.08;;
36243;SDS011;22284;49.956;19.816;2022-08-19T03:33:07;19.20;;;12.07;;
36243;SDS011;22284;49.956;19.816;2022-08-19T03:36:11;18.67;;;12.00;;
36243;SDS011;22284;49.956;19.816;2022-08-19T03:39:16;17.12;;;11.28;;
36243;SDS011;22284;49.956;19.816;2022-08-19T03:42:17;17.37;;;12.17;;
36243;SDS011;22284;49.956;19.816;2022-08-19T03:45:18;19.15;;;12.13;;
36243;SDS011;22284;49.956;19.816;2022-08-19T03:48:19;16.80;;;11.35;;
36243;SDS011;22284;49.956;19.816;2022-08-19T03:51:25;19.60;;;12.35;;
36243;SDS011;22284;49.956;19.816;2022-08-19T03:54:31;16.73;;;11.70;;
36243;SDS011;22284;49.956;19.816;2022-08-19T03:57:32;17.70;;;11.48;;
36243;SDS011;22284;49.956;19.816;2022-08-19T04:03:37;19.60;;;12.70;;
36243;SDS011;22284;49.956;19.816;2022-08-19T04:06:39;18.92;;;11.63;;
36243;SDS011;22284;49.956;19.816;2022-08-19T04:09:40;17.90;;;11.43;;
36243;SDS011;22284;49.956;19.816;2022-08-19T04:12:42;18.87;;;11.80;;
36243;SDS011;22284;49.956;19.816;2022-08-19T04:15:43;18.98;;;11.43;;
36243;SDS011;22284;49.956;19.816;2022-08-19T04:18:47;16.65;;;10.60;;
36243;SDS011;22284;49.956;19.816;2022-08-19T04:21:49;18.37;;;11.57;;
36243;SDS011;22284;49.956;19.816;2022-08-19T04:24:53;16.80;;;11.30;;
36243;SDS011;22284;49.956;19.816;2022-08-19T04:27:54;17.75;;;12.20;;
36243;SDS011;22284;49.956;19.816;2022-08-19T04:30:55;19.17;;;11.43;;
36243;SDS011;22284;49.956;19.816;2022-08-19T04:33:58;18.35;;;12.03;;
36243;SDS011;22284;49.956;19.816;2022-08-19T04:37:00;18.15;;;12.03;;
36243;SDS011;22284;49.956;19.816;2022-08-19T04:40:02;20.57;;;11.85;;
36243;SDS011;22284;49.956;19.816;2022-08-19T04:43:25;23.50;;;12.03;;
36243;SDS011;22284;49.956;19.816;2022-08-19T04:46:26;17.57;;;11.48;;
36243;SDS011;22284;49.956;19.816;2022-08-19T04:49:29;19.52;;;11.45;;
36243;SDS011;22284;49.956;19.816;2022-08-19T04:52:30;16.52;;;11.12;;
36243;SDS011;22284;49.956;19.816;2022-08-19T04:55:32;20.95;;;12.70;;
36243;SDS011;22284;49.956;19.816;2022-08-19T04:58:33;16.93;;;12.00;;
36243;SDS011;22284;49.956;19.816;2022-08-19T05:04:37;19.15;;;12.63;;
36243;SDS011;22284;49.956;19.816;2022-08-19T05:07:39;19.35;;;13.00;;
36243;SDS011;22284;49.956;19.816;2022-08-19T05:10:41;21.60;;;13.23;;
36243;SDS011;22284;49.956;19.816;2022-08-19T05:13:43;20.25;;;13.18;;
36243;SDS011;22284;49.956;19.816;2022-08-19T05:16:45;18.52;;;12.70;;
36243;SDS011;22284;49.956;19.816;2022-08-19T05:19:46;18.67;;;12.78;;
36243;SDS011;22284;49.956;19.816;2022-08-19T05:23:05;20.20;;;13.53;;
36243;SDS011;22284;49.956;19.816;2022-08-19T05:26:07;19.05;;;12.90;;
36243;SDS011;22284;49.956;19.816;2022-08-19T05:29:09;18.25;;;12.73;;
36243;SDS011;22284;49.956;19.816;2022-08-19T05:32:10;19.37;;;12.65;;
36243;SDS011;22284;49.956;19.816;2022-08-19T05:35:11;18.62;;;13.05;;
36243;SDS011;22284;49.956;19.816;2022-08-19T05:38:12;20.48;;;13.20;;
36243;SDS011;22284;49.956;19.816;2022-08-19T05:41:13;21.30;;;14.25;;
36243;SDS011;22284;49.956;19.816;2022-08-19T05:44:17;20.02;;;13.20;;
36243;SDS011;22284;49.956;19.816;2022-08-19T05:47:18;26.67;;;13.87;;
36243;SDS011;22284;49.956;19.816;2022-08-19T05:50:20;23.30;;;14.03;;
36243;SDS011;22284;49.956;19.816;2022-08-19T05:53:22;21.77;;;14.20;;
36243;SDS011;22284;49.956;19.816;2022-08-19T05:56:23;21.40;;;13.58;;
36243;SDS011;22284;49.956;19.816;2022-08-19T05:59:25;22.57;;;14.37;;
36243;SDS011;22284;49.956;19.816;2022-08-19T06:02:26;21.57;;;13.60;;
36243;SDS011;22284;49.956;19.816;2022-08-19T06:05:30;20.30;;;13.75;;
36243;SDS011;22284;49.956;19.816;2022-08-19T06:08:32;18.42;;;13.45;;
36243;SDS011;22284;49.956;19.816;2022-08-19T06:11:35;20.12;;;13.72;;
36243;SDS011;22284;49.956;19.816;2022-08-19T06:14:43;21.05;;;13.83;;
36243;SDS011;22284;49.956;19.816;2022-08-19T06:17:44;20.92;;;14.10;;
36243;SDS011;22284;49.956;19.816;2022-08-19T06:20:45;21.35;;;15.23;;
36243;SDS011;22284;49.956;19.816;2022-08-19T06:23:47;21.23;;;15.85;;
36243;SDS011;22284;49.956;19.816;2022-08-19T06:26:48;24.75;;;16.52;;
36243;SDS011;22284;49.956;19.816;2022-08-19T06:29:52;23.27;;;16.32;;
36243;SDS011;22284;49.956;19.816;2022-08-19T06:32:54;25.52;;;15.80;;
36243;SDS011;22284;49.956;19.816;2022-08-19T06:35:55;22.22;;;15.72;;
36243;SDS011;22284;49.956;19.816;2022-08-19T06:39:01;21.60;;;15.30;;
36243;SDS011;22284;49.956;19.816;2022-08-19T06:42:02;22.42;;;14.73;;
36243;SDS011;22284;49.956;19.816;2022-08-19T06:45:06;20.55;;;13.30;;
36243;SDS011;22284;49.956;19.816;2022-08-19T06:48:08;19.55;;;13.68;;
36243;SDS011;22284;49.956;19.816;2022-08-19T06:51:09;21.00;;;14.63;;
36243;SDS011;22284;49.956;19.816;2022-08-19T06:54:11;23.47;;;14.05;;
36243;SDS011;22284;49.956;19.816;2022-08-19T06:57:12;17.57;;;12.82;;
36243;SDS011;22284;49.956;19.816;2022-08-19T07:00:15;21.17;;;14.05;;
36243;SDS011;22284;49.956;19.816;2022-08-19T07:03:16;20.30;;;14.33;;
36243;SDS011;22284;49.956;19.816;2022-08-19T07:06:18;19.77;;;13.00;;
36243;SDS011;22284;49.956;19.816;2022-08-19T07:09:20;20.68;;;13.35;;
36243;SDS011;22284;49.956;19.816;2022-08-19T07:12:22;22.70;;;14.18;;
36243;SDS011;22284;49.956;19.816;2022-08-19T07:15:23;20.00;;;13.78;;
36243;SDS011;22284;49.956;19.816;2022-08-19T07:18:24;18.75;;;13.08;;
36243;SDS011;22284;49.956;19.816;2022-08-19T07:21:26;21.65;;;12.90;;
36243;SDS011;22284;49.956;19.816;2022-08-19T07:24:29;19.17;;;12.37;;
36243;SDS011;22284;49.956;19.816;2022-08-19T07:27:31;20.00;;;12.68;;
36243;SDS011;22284;49.956;19.816;2022-08-19T07:30:32;19.52;;;12.95;;
36243;SDS011;22284;49.956;19.816;2022-08-19T07:33:35;18.42;;;13.18;;
36243;SDS011;22284;49.956;19.816;2022-08-19T07:36:38;18.92;;;12.88;;
36243;SDS011;22284;49.956;19.816;2022-08-19T07:39:42;20.88;;;13.03;;
36243;SDS011;22284;49.956;19.816;2022-08-19T07:42:43;19.73;;;12.55;;
36243;SDS011;22284;49.956;19.816;2022-08-19T07:45:44;21.50;;;13.25;;
36243;SDS011;22284;49.956;19.816;2022-08-19T07:48:46;21.02;;;12.78;;
36243;SDS011;22284;49.956;19.816;2022-08-19T07:52:00;19.05;;;12.43;;
36243;SDS011;22284;49.956;19.816;2022-08-19T07:55:06;19.25;;;12.68;;
36243;SDS011;22284;49.956;19.816;2022-08-19T07:58:10;24.95;;;12.00;;
36243;SDS011;22284;49.956;19.816;2022-08-19T08:01:17;20.37;;;11.97;;
36243;SDS011;22284;49.956;19.816;2022-08-19T08:04:24;17.98;;;11.35;;
36243;SDS011;22284;49.956;19.816;2022-08-19T08:07:43;18.17;;;12.03;;
36243;SDS011;22284;49.956;19.816;2022-08-19T08:11:04;21.23;;;12.53;;
36243;SDS011;22284;49.956;19.816;2022-08-19T08:14:06;18.80;;;11.97;;
36243;SDS011;22284;49.956;19.816;2022-08-19T08:17:09;20.35;;;12.50;;
36243;SDS011;22284;49.956;19.816;2022-08-19T08:20:13;17.57;;;11.53;;
36243;SDS011;22284;49.956;19.816;2022-08-19T08:23:14;19.12;;;11.97;;
36243;SDS011;22284;49.956;19.816;2022-08-19T08:26:26;20.23;;;12.40;;
36243;SDS011;22284;49.956;19.816;2022-08-19T08:29:28;18.82;;;11.70;;
36243;SDS011;22284;49.956;19.816;2022-08-19T08:32:31;19.70;;;11.45;;
36243;SDS011;22284;49.956;19.816;2022-08-19T08:35:32;19.65;;;12.07;;
36243;SDS011;22284;49.956;19.816;2022-08-19T08:38:34;18.62;;;11.80;;
36243;SDS011;22284;49.956;19.816;2022-08-19T08:45:10;18.42;;;10.78;;
36243;SDS011;22284;49.956;19.816;2022-08-19T08:52:10;16.73;;;11.35;;
36243;SDS011;22284;49.956;19.816;2022-08-19T08:55:27;21.35;;;11.45;;
36243;SDS011;22284;49.956;19.816;2022-08-19T08:58:36;19.62;;;11.25;;
36243;SDS011;22284;49.956;19.816;2022-08-19T09:01:45;16.32;;;11.20;;
36243;SDS011;22284;49.956;19.816;2022-08-19T09:04:46;15.60;;;10.63;;
36243;SDS011;22284;49.956;19.816;2022-08-19T09:07:51;15.80;;;10.15;;
36243;SDS011;22284;49.956;19.816;2022-08-19T09:11:08;16.15;;;10.50;;
36243;SDS011;22284;49.956;19.816;2022-08-19T09:17:28;17.73;;;11.43;;
36243;SDS011;22284;49.956;19.816;2022-08-19T09:20:32;19.50;;;10.58;;
36243;SDS011;22284;49.956;19.816;2022-08-19T09:23:34;14.43;;;10.33;;
36243;SDS011;22284;49.956;19.816;2022-08-19T09:26:37;16.75;;;9.98;;
36243;SDS011;22284;49.956;19.816;2022-08-19T09:29:38;17.87;;;10.23;;
36243;SDS011;22284;49.956;19.816;2022-08-19T09:32:39;14.35;;;10.05;;
36243;SDS011;22284;49.956;19.816;2022-08-19T09:35:42;19.55;;;9.60;;
36243;SDS011;22284;49.956;19.816;2022-08-19T09:38:43;17.03;;;10.17;;
36243;SDS011;22284;49.956;19.816;2022-08-19T09:46:02;14.60;;;10.15;;
36243;SDS011;22284;49.956;19.816;2022-08-19T09:49:06;15.10;;;9.13;;
36243;SDS011;22284;49.956;19.816;2022-08-19T09:52:08;19.27;;;10.35;;
36243;SDS011;22284;49.956;19.816;2022-08-19T09:55:11;13.98;;;9.53;;
36243;SDS011;22284;49.956;19.816;2022-08-19T09:58:13;16.12;;;10.08;;
36243;SDS011;22284;49.956;19.816;2022-08-19T10:01:21;14.83;;;9.97;;
36243;SDS011;22284;49.956;19.816;2022-08-19T10:04:24;14.80;;;9.40;;
36243;SDS011;22284;49.956;19.816;2022-08-19T10:07:29;13.72;;;9.53;;
36243;SDS011;22284;49.956;19.816;2022-08-19T10:10:34;13.78;;;9.28;;
36243;SDS011;22284;49.956;19.816;2022-08-19T10:13:36;18.12;;;9.68;;
36243;SDS011;22284;49.956;19.816;2022-08-19T10:16:37;16.45;;;9.03;;
36243;SDS011;22284;49.956;19.816;2022-08-19T10:19:39;13.38;;;8.95;;
36243;SDS011;22284;49.956;19.816;2022-08-19T10:22:40;16.82;;;9.28;;
36243;SDS011;22284;49.956;19.816;2022-08-19T10:25:42;14.68;;;9.03;;
36243;SDS011;22284;49.956;19.816;2022-08-19T10:28:43;12.75;;;9.45;;
36243;SDS011;22284;49.956;19.816;2022-08-19T10:31:44;19.30;;;9.10;;
36243;SDS011;22284;49.956;19.816;2022-08-19T10:34:47;12.70;;;8.83;;
36243;SDS011;22284;49.956;19.816;2022-08-19T10:37:50;14.50;;;8.80;;
36243;SDS011;22284;49.956;19.816;2022-08-19T10:40:50;14.87;;;8.73;;
36243;SDS011;22284;49.956;19.816;2022-08-19T10:43:53;13.22;;;9.20;;
36243;SDS011;22284;49.956;19.816;2022-08-19T10:46:56;15.88;;;9.50;;
36243;SDS011;22284;49.956;19.816;2022-08-19T10:49:59;17.98;;;9.65;;
36243;SDS011;22284;49.956;19.816;2022-08-19T10:53:18;14.28;;;9.33;;
36243;SDS011;22284;49.956;19.816;2022-08-19T10:56:21;14.55;;;9.15;;
36243;SDS011;22284;49.956;19.816;2022-08-19T10:59:41;14.38;;;9.33;;
36243;SDS011;22284;49.956;19.816;2022-08-19T11:02:42;13.47;;;9.83;;
36243;SDS011;22284;49.956;19.816;2022-08-19T11:05:43;14.05;;;9.33;;
36243;SDS011;22284;49.956;19.816;2022-08-19T11:08:43;15.10;;;9.55;;
36243;SDS011;22284;49.956;19.816;2022-08-19T11:14:47;12.00;;;9.13;;
36243;SDS011;22284;49.956;19.816;2022-08-19T11:17:50;14.80;;;10.18;;
36243;SDS011;22284;49.956;19.816;2022-08-19T11:20:54;16.17;;;9.78;;
36243;SDS011;22284;49.956;19.816;2022-08-19T11:23:56;15.10;;;9.68;;
36243;SDS011;22284;49.956;19.816;2022-08-19T11:27:03;14.60;;;9.88;;
36243;SDS011;22284;49.956;19.816;2022-08-19T11:30:10;14.93;;;10.63;;
36243;SDS011;22284;49.956;19.816;2022-08-19T11:33:13;13.88;;;9.78;;
36243;SDS011;22284;49.956;19.816;2022-08-19T11:36:14;13.20;;;10.10;;
36243;SDS011;22284;49.956;19.816;2022-08-19T11:39:18;16.27;;;10.32;;
36243;SDS011;22284;49.956;19.816;2022-08-19T11:42:22;15.30;;;10.80;;
36243;SDS011;22284;49.956;19.816;2022-08-19T11:45:41;20.50;;;10.65;;
36243;SDS011;22284;49.956;19.816;2022-08-19T11:48:43;17.57;;;10.90;;
36243;SDS011;22284;49.956;19.816;2022-08-19T11:51:45;15.88;;;10.25;;
36243;SDS011;22284;49.956;19.816;2022-08-19T11:54:48;15.45;;;10.50;;
36243;SDS011;22284;49.956;19.816;2022-08-19T11:57:49;15.10;;;10.53;;
36243;SDS011;22284;49.956;19.816;2022-08-19T12:00:51;16.02;;;9.53;;
36243;SDS011;22284;49.956;19.816;2022-08-19T12:03:53;19.62;;;10.38;;
36243;SDS011;22284;49.956;19.816;2022-08-19T12:06:56;16.48;;;10.00;;
36243;SDS011;22284;49.956;19.816;2022-08-19T12:09:57;18.12;;;9.48;;
36243;SDS011;22284;49.956;19.816;2022-08-19T12:12:58;12.60;;;8.98;;
36243;SDS011;22284;49.956;19.816;2022-08-19T12:15:59;11.30;;;8.58;;
36243;SDS011;22284;49.956;19.816;2022-08-19T12:19:00;13.35;;;8.93;;
36243;SDS011;22284;49.956;19.816;2022-08-19T12:22:04;12.85;;;9.05;;
36243;SDS011;22284;49.956;19.816;2022-08-19T12:25:09;14.38;;;9.13;;
36243;SDS011;22284;49.956;19.816;2022-08-19T12:28:11;13.18;;;8.75;;
36243;SDS011;22284;49.956;19.816;2022-08-19T12:34:14;14.03;;;8.10;;
36243;SDS011;22284;49.956;19.816;2022-08-19T12:37:16;12.03;;;8.30;;
36243;SDS011;22284;49.956;19.816;2022-08-19T12:40:17;13.90;;;8.78;;
36243;SDS011;22284;49.956;19.816;2022-08-19T12:49:21;11.93;;;7.77;;
36243;SDS011;22284;49.956;19.816;2022-08-19T12:52:23;13.88;;;7.37;;
36243;SDS011;22284;49.956;19.816;2022-08-19T12:55:27;10.98;;;7.47;;
36243;SDS011;22284;49.956;19.816;2022-08-19T12:58:29;11.38;;;7.28;;
36243;SDS011;22284;49.956;19.816;2022-08-19T13:01:30;14.38;;;7.25;;
36243;SDS011;22284;49.956;19.816;2022-08-19T13:04:33;12.70;;;7.55;;
36243;SDS011;22284;49.956;19.816;2022-08-19T13:07:37;14.50;;;7.75;;
36243;SDS011;22284;49.956;19.816;2022-08-19T13:10:39;10.18;;;7.50;;
36243;SDS011;22284;49.956;19.816;2022-08-19T13:13:41;13.88;;;7.62;;
36243;SDS011;22284;49.956;19.816;2022-08-19T13:16:44;11.83;;;7.80;;
36243;SDS011;22284;49.956;19.816;2022-08-19T13:19:45;18.60;;;8.00;;
36243;SDS011;22284;49.956;19.816;2022-08-19T13:22:46;15.30;;;7.65;;
36243;SDS011;22284;49.956;19.816;2022-08-19T13:25:58;10.38;;;7.22;;
36243;SDS011;22284;49.956;19.816;2022-08-19T13:29:00;11.83;;;7.03;;
36243;SDS011;22284;49.956;19.816;2022-08-19T13:32:20;11.80;;;6.87;;
36243;SDS011;22284;49.956;19.816;2022-08-19T13:35:50;10.48;;;6.50;;
36243;SDS011;22284;49.956;19.816;2022-08-19T13:38:46;9.60;;;6.55;;
36243;SDS011;22284;49.956;19.816;2022-08-19T13:41:47;9.98;;;6.85;;
36243;SDS011;22284;49.956;19.816;2022-08-19T13:44:48;14.07;;;6.33;;
36243;SDS011;22284;49.956;19.816;2022-08-19T13:47:51;9.83;;;6.17;;
36243;SDS011;22284;49.956;19.816;2022-08-19T13:50:54;9.20;;;6.33;;
36243;SDS011;22284;49.956;19.816;2022-08-19T13:53:56;12.82;;;6.70;;
36243;SDS011;22284;49.956;19.816;2022-08-19T13:56:57;11.25;;;6.90;;
36243;SDS011;22284;49.956;19.816;2022-08-19T13:59:58;13.75;;;7.22;;
36243;SDS011;22284;49.956;19.816;2022-08-19T14:06:00;15.23;;;7.50;;
36243;SDS011;22284;49.956;19.816;2022-08-19T14:12:03;11.60;;;7.55;;
36243;SDS011;22284;49.956;19.816;2022-08-19T14:15:05;12.47;;;7.55;;
36243;SDS011;22284;49.956;19.816;2022-08-19T14:18:10;13.85;;;7.97;;
36243;SDS011;22284;49.956;19.816;2022-08-19T14:21:15;10.88;;;7.10;;
36243;SDS011;22284;49.956;19.816;2022-08-19T14:24:24;11.97;;;7.12;;
36243;SDS011;22284;49.956;19.816;2022-08-19T14:27:25;12.23;;;7.55;;
36243;SDS011;22284;49.956;19.816;2022-08-19T14:30:27;12.35;;;7.47;;
36243;SDS011;22284;49.956;19.816;2022-08-19T14:33:32;13.60;;;7.17;;
36243;SDS011;22284;49.956;19.816;2022-08-19T14:36:33;15.23;;;8.10;;
36243;SDS011;22284;49.956;19.816;2022-08-19T14:39:34;12.00;;;7.55;;
36243;SDS011;22284;49.956;19.816;2022-08-19T14:42:35;12.00;;;7.60;;
36243;SDS011;22284;49.956;19.816;2022-08-19T14:45:37;14.95;;;7.35;;
36243;SDS011;22284;49.956;19.816;2022-08-19T14:48:39;10.53;;;7.37;;
36243;SDS011;22284;49.956;19.816;2022-08-19T14:51:40;10.85;;;7.17;;
36243;SDS011;22284;49.956;19.816;2022-08-19T14:54:41;11.10;;;7.00;;
36243;SDS011;22284;49.956;19.816;2022-08-19T14:57:43;13.72;;;7.85;;
36243;SDS011;22284;49.956;19.816;2022-08-19T15:00:44;11.88;;;8.35;;
36243;SDS011;22284;49.956;19.816;2022-08-19T15:03:46;11.57;;;7.85;;
36243;SDS011;22284;49.956;19.816;2022-08-19T15:06:48;10.78;;;7.83;;
36243;SDS011;22284;49.956;19.816;2022-08-19T15:09:50;11.57;;;7.95;;
36243;SDS011;22284;49.956;19.816;2022-08-19T15:12:51;15.13;;;7.55;;
36243;SDS011;22284;49.956;19.816;2022-08-19T15:15:53;12.70;;;7.58;;
36243;SDS011;22284;49.956;19.816;2022-08-19T15:18:56;13.65;;;7.92;;
36243;SDS011;22284;49.956;19.816;2022-08-19T15:22:00;12.35;;;7.35;;
36243;SDS011;22284;49.956;19.816;2022-08-19T15:25:03;13.25;;;7.85;;
36243;SDS011;22284;49.956;19.816;2022-08-19T15:28:07;13.55;;;7.83;;
36243;SDS011;22284;49.956;19.816;2022-08-19T15:31:10;11.83;;;7.53;;
36243;SDS011;22284;49.956;19.816;2022-08-19T15:34:13;12.47;;;7.80;;
36243;SDS011;22284;49.956;19.816;2022-08-19T15:37:14;12.60;;;8.03;;
36243;SDS011;22284;49.956;19.816;2022-08-19T15:40:15;16.12;;;8.18;;
36243;SDS011;22284;49.956;19.816;2022-08-19T15:43:17;10.00;;;7.10;;
36243;SDS011;22284;49.956;19.816;2022-08-19T15:46:24;13.60;;;7.80;;
36243;SDS011;22284;49.956;19.816;2022-08-19T15:49:28;13.03;;;7.97;;
36243;SDS011;22284;49.956;19.816;2022-08-19T15:52:28;11.88;;;7.72;;
36243;SDS011;22284;49.956;19.816;2022-08-19T15:55:32;10.70;;;7.50;;
36243;SDS011;22284;49.956;19.816;2022-08-19T15:58:35;13.05;;;7.92;;
36243;SDS011;22284;49.956;19.816;2022-08-19T16:01:55;15.35;;;7.70;;
36243;SDS011;22284;49.956;19.816;2022-08-19T16:05:16;11.53;;;7.47;;
36243;SDS011;22284;49.956;19.816;2022-08-19T16:08:39;9.75;;;7.42;;
36243;SDS011;22284;49.956;19.816;2022-08-19T16:11:40;10.53;;;7.62;;
36243;SDS011;22284;49.956;19.816;2022-08-19T16:14:43;12.85;;;7.95;;
36243;SDS011;22284;49.956;19.816;2022-08-19T16:17:44;9.75;;;7.85;;
36243;SDS011;22284;49.956;19.816;2022-08-19T16:20:45;11.88;;;8.03;;
36243;SDS011;22284;49.956;19.816;2022-08-19T16:23:47;11.50;;;7.95;;
36243;SDS011;22284;49.956;19.816;2022-08-19T16:26:49;12.00;;;7.92;;
36243;SDS011;22284;49.956;19.816;2022-08-19T16:29:50;13.18;;;7.92;;
36243;SDS011;22284;49.956;19.816;2022-08-19T16:32:51;14.10;;;7.97;;
36243;SDS011;22284;49.956;19.816;2022-08-19T16:35:52;12.05;;;7.90;;
36243;SDS011;22284;49.956;19.816;2022-08-19T16:38:54;12.93;;;8.55;;
36243;SDS011;22284;49.956;19.816;2022-08-19T16:41:55;12.20;;;7.75;;
36243;SDS011;22284;49.956;19.816;2022-08-19T16:44:57;12.68;;;9.03;;
36243;SDS011;22284;49.956;19.816;2022-08-19T16:47:58;15.35;;;8.15;;
36243;SDS011;22284;49.956;19.816;2022-08-19T16:50:59;14.43;;;8.00;;
36243;SDS011;22284;49.956;19.816;2022-08-19T16:54:02;14.85;;;8.30;;
36243;SDS011;22284;49.956;19.816;2022-08-19T16:57:04;11.73;;;8.35;;
36243;SDS011;22284;49.956;19.816;2022-08-19T17:00:06;12.88;;;8.13;;
36243;SDS011;22284;49.956;19.816;2022-08-19T17:03:10;15.72;;;8.75;;
36243;SDS011;22284;49.956;19.816;2022-08-19T17:06:13;12.80;;;8.73;;
36243;SDS011;22284;49.956;19.816;2022-08-19T17:09:17;11.53;;;8.43;;
36243;SDS011;22284;49.956;19.816;2022-08-19T17:12:18;12.70;;;8.67;;
36243;SDS011;22284;49.956;19.816;2022-08-19T17:15:19;13.87;;;8.43;;
36243;SDS011;22284;49.956;19.816;2022-08-19T17:18:21;14.60;;;9.20;;
36243;SDS011;22284;49.956;19.816;2022-08-19T17:21:24;14.38;;;8.85;;
36243;SDS011;22284;49.956;19.816;2022-08-19T17:24:28;15.95;;;9.15;;
36243;SDS011;22284;49.956;19.816;2022-08-19T17:27:29;15.10;;;9.33;;
36243;SDS011;22284;49.956;19.816;2022-08-19T17:30:30;15.00;;;9.28;;
36243;SDS011;22284;49.956;19.816;2022-08-19T17:33:31;15.25;;;9.43;;
36243;SDS011;22284;49.956;19.816;2022-08-19T17:36:33;14.07;;;9.65;;
36243;SDS011;22284;49.956;19.816;2022-08-19T17:39:34;15.53;;;10.00;;
36243;SDS011;22284;49.956;19.816;2022-08-19T17:42:37;18.07;;;10.18;;
36243;SDS011;22284;49.956;19.816;2022-08-19T17:45:40;15.65;;;10.05;;
36243;SDS011;22284;49.956;19.816;2022-08-19T17:48:43;16.77;;;10.78;;
36243;SDS011;22284;49.956;19.816;2022-08-19T17:51:45;16.02;;;10.35;;
36243;SDS011;22284;49.956;19.816;2022-08-19T17:54:48;15.18;;;10.63;;
36243;SDS011;22284;49.956;19.816;2022-08-19T17:57:49;19.00;;;11.17;;
36243;SDS011;22284;49.956;19.816;2022-08-19T18:00:51;13.65;;;9.40;;
36243;SDS011;22284;49.956;19.816;2022-08-19T18:03:54;16.90;;;10.30;;
36243;SDS011;22284;49.956;19.816;2022-08-19T18:06:55;15.72;;;9.73;;
36243;SDS011;22284;49.956;19.816;2022-08-19T18:09:56;14.87;;;9.40;;
36243;SDS011;22284;49.956;19.816;2022-08-19T18:12:58;15.70;;;9.40;;
36243;SDS011;22284;49.956;19.816;2022-08-19T18:16:00;16.05;;;9.80;;
36243;SDS011;22284;49.956;19.816;2022-08-19T18:19:02;14.63;;;9.13;;
36243;SDS011;22284;49.956;19.816;2022-08-19T18:22:03;12.63;;;8.77;;
36243;SDS011;22284;49.956;19.816;2022-08-19T18:25:08;15.10;;;9.30;;
36243;SDS011;22284;49.956;19.816;2022-08-19T18:28:17;11.83;;;8.83;;